Time;durP1;ratioP1;P1;durP2;ratioP2;P2;SDS_P1;SDS_P2;PMS_P1;PMS_P2;Temp;Humidity;BMP_temperature;BMP_pressure;BME280_temperature;BME280_humidity;BME280_pressure;Samples;Min_cycle;Max_cycle;Signal;HPM_P1;HPM_P2
2023/06/21 00:00:51;;;;;;;10.57;4.57;;;21.30;99.90;;;;;;4957425;28;20038;-67
2023/06/21 00:03:17;;;;;;;10.85;5.80;;;21.40;99.90;;;;;;4957758;28;20038;-68
2023/06/21 00:05:42;;;;;;;11.98;5.75;;;21.30;99.90;;;;;;4957565;28;20023;-68
2023/06/21 00:08:08;;;;;;;8.40;4.60;;;21.30;99.90;;;;;;4974553;28;20126;-69
2023/06/21 00:10:34;;;;;;;9.05;5.28;;;21.40;99.90;;;;;;4974691;28;20038;-68
2023/06/21 00:13:00;;;;;;;9.65;5.22;;;21.40;99.90;;;;;;4956726;28;20452;-67
2023/06/21 00:15:26;;;;;;;10.30;5.18;;;21.40;99.90;;;;;;4957427;28;20034;-68
2023/06/21 00:17:52;;;;;;;14.60;5.80;;;21.40;99.90;;;;;;4974493;28;20434;-68
2023/06/21 00:20:18;;;;;;;8.90;5.20;;;21.40;99.90;;;;;;4974320;28;20101;-68
2023/06/21 00:22:45;;;;;;;10.52;5.88;;;21.50;99.90;;;;;;4974440;28;20067;-67
2023/06/21 00:25:13;;;;;;;8.93;5.70;;;21.50;99.90;;;;;;4974478;28;20498;-68
2023/06/21 00:27:39;;;;;;;9.85;4.88;;;21.50;99.90;;;;;;4957509;28;20066;-67
2023/06/21 00:30:06;;;;;;;8.07;4.30;;;21.40;99.90;;;;;;4956660;28;20034;-68
2023/06/21 00:32:31;;;;;;;9.40;5.43;;;21.30;99.90;;;;;;4974022;28;20515;-68
2023/06/21 00:34:57;;;;;;;14.57;4.93;;;21.30;99.90;;;;;;4974214;28;20085;-68
2023/06/21 00:37:26;;;;;;;21.65;6.10;;;21.30;99.90;;;;;;4974305;28;20030;-68
2023/06/21 00:39:52;;;;;;;16.90;5.22;;;21.20;99.90;;;;;;4957043;28;20538;-68
2023/06/21 00:42:18;;;;;;;12.13;5.10;;;21.20;99.90;;;;;;4957110;28;20093;-68
2023/06/21 00:44:44;;;;;;;10.50;5.32;;;21.20;99.90;;;;;;4956917;28;20035;-68
2023/06/21 00:47:09;;;;;;;8.98;4.88;;;21.30;99.90;;;;;;4957193;28;20557;-67
2023/06/21 00:49:35;;;;;;;9.02;5.45;;;21.30;99.90;;;;;;4973999;28;20041;-67
2023/06/21 00:52:03;;;;;;;7.90;5.35;;;21.10;99.90;;;;;;4974271;28;20689;-67
2023/06/21 00:54:35;;;;;;;10.45;5.70;;;21.10;99.90;;;;;;4941063;28;20038;-67
2023/06/21 00:57:04;;;;;;;9.77;4.97;;;21.00;99.90;;;;;;4973958;28;20054;-67
2023/06/21 00:59:31;;;;;;;15.75;7.03;;;21.00;99.90;;;;;;4973515;28;20030;-67
2023/06/21 01:02:00;;;;;;;11.55;5.80;;;21.00;99.90;;;;;;4956581;28;20041;-68
2023/06/21 01:04:31;;;;;;;11.77;5.57;;;21.00;99.90;;;;;;4975749;28;20066;-68
2023/06/21 01:07:30;;;;;;;11.20;4.80;;;21.10;99.90;;;;;;4967427;28;20034;-68
2023/06/21 01:10:26;;;;;;;12.10;5.93;;;20.90;99.90;;;;;;4988307;28;20038;-68
2023/06/21 01:13:04;;;;;;;16.60;6.15;;;20.90;99.90;;;;;;4973034;28;20491;-68
2023/06/21 01:15:42;;;;;;;13.68;5.50;;;21.00;99.90;;;;;;4982049;28;20030;-68
2023/06/21 01:18:14;;;;;;;10.70;5.50;;;21.10;99.90;;;;;;4976211;28;20475;-67
2023/06/21 01:20:41;;;;;;;12.98;5.90;;;21.10;99.90;;;;;;4975270;28;20072;-68
2023/06/21 01:23:42;;;;;;;14.68;4.85;;;21.00;99.90;;;;;;4975238;28;20026;-68
2023/06/21 01:26:22;;;;;;;16.17;5.00;;;21.10;99.90;;;;;;4977453;28;20053;-68
2023/06/21 01:29:14;;;;;;;12.43;5.95;;;21.10;99.90;;;;;;4976518;28;20757;-68
2023/06/21 01:31:42;;;;;;;9.93;5.40;;;21.00;99.90;;;;;;4992368;28;20038;-68
2023/06/21 01:34:13;;;;;;;11.95;5.22;;;21.10;99.90;;;;;;4975450;28;20030;-68
2023/06/21 01:36:40;;;;;;;12.27;5.53;;;21.00;99.90;;;;;;4975470;28;20108;-68
2023/06/21 01:39:12;;;;;;;8.27;4.85;;;20.90;99.90;;;;;;4975160;28;20023;-68
2023/06/21 01:41:38;;;;;;;11.90;7.32;;;20.90;99.90;;;;;;4975400;28;20103;-68
2023/06/21 01:44:09;;;;;;;10.02;5.85;;;20.80;99.90;;;;;;4992346;28;20048;-68
2023/06/21 01:46:44;;;;;;;13.75;5.90;;;20.80;99.90;;;;;;5088505;27;20121;-69
2023/06/21 01:49:12;;;;;;;12.60;6.15;;;20.80;99.90;;;;;;5067961;28;20488;-68
2023/06/21 01:51:41;;;;;;;10.32;6.10;;;20.70;99.90;;;;;;5083324;28;20542;-69
2023/06/21 01:54:08;;;;;;;11.70;6.30;;;20.70;99.90;;;;;;5066573;28;20033;-68
2023/06/21 01:56:37;;;;;;;10.10;5.68;;;20.80;99.90;;;;;;5047127;28;20124;-68
2023/06/21 01:59:03;;;;;;;15.32;5.60;;;20.80;99.90;;;;;;5046995;28;20040;-69
2023/06/21 02:01:31;;;;;;;8.77;5.53;;;20.80;99.90;;;;;;5046527;28;20037;-68
2023/06/21 02:04:01;;;;;;;9.68;5.68;;;20.70;99.90;;;;;;5046465;28;20029;-68
2023/06/21 02:06:32;;;;;;;12.35;5.88;;;20.70;99.90;;;;;;5047911;28;20033;-69
2023/06/21 02:09:05;;;;;;;11.32;5.78;;;20.70;99.90;;;;;;5046677;28;20108;-68
2023/06/21 02:11:31;;;;;;;12.45;5.85;;;20.60;99.90;;;;;;5046373;28;20388;-68
2023/06/21 02:13:58;;;;;;;18.65;6.68;;;20.60;99.90;;;;;;5046029;28;20022;-68
2023/06/21 02:16:29;;;;;;;11.05;6.28;;;20.60;99.90;;;;;;5043117;28;20037;-68
2023/06/21 02:18:55;;;;;;;10.55;5.72;;;20.50;99.90;;;;;;5026449;28;20117;-69
2023/06/21 02:21:22;;;;;;;17.13;6.30;;;20.40;99.90;;;;;;5025945;28;20141;-68
2023/06/21 02:23:49;;;;;;;10.50;5.85;;;20.50;99.90;;;;;;5026606;28;20113;-68
2023/06/21 02:26:16;;;;;;;11.00;5.93;;;20.40;99.90;;;;;;5027626;28;20068;-68
2023/06/21 02:28:41;;;;;;;14.00;6.93;;;20.40;99.90;;;;;;5026465;28;20028;-68
2023/06/21 02:31:07;;;;;;;17.17;6.00;;;20.40;99.90;;;;;;5026161;28;20025;-68
2023/06/21 02:33:33;;;;;;;11.40;5.93;;;20.40;99.90;;;;;;5027304;28;20380;-68
2023/06/21 02:35:59;;;;;;;11.93;6.68;;;20.40;99.90;;;;;;5027541;28;20034;-68
2023/06/21 02:38:25;;;;;;;12.55;6.70;;;20.40;99.90;;;;;;5026445;28;20133;-68
2023/06/21 02:40:52;;;;;;;9.75;5.32;;;20.40;99.90;;;;;;5042709;28;20029;-69
2023/06/21 02:43:17;;;;;;;20.30;6.43;;;20.40;99.90;;;;;;5042827;28;20032;-68
2023/06/21 02:45:43;;;;;;;13.25;6.18;;;20.30;99.90;;;;;;5027336;28;20033;-68
2023/06/21 02:48:09;;;;;;;12.25;6.43;;;20.30;99.90;;;;;;5027344;28;20033;-68
2023/06/21 02:50:35;;;;;;;10.73;6.18;;;20.30;99.90;;;;;;5027041;28;20037;-68
2023/06/21 02:53:01;;;;;;;13.88;6.75;;;20.40;99.90;;;;;;5026922;28;20462;-68
2023/06/21 02:55:27;;;;;;;16.05;6.90;;;20.40;99.90;;;;;;5027116;28;20026;-68
2023/06/21 02:57:54;;;;;;;12.48;6.72;;;20.40;99.90;;;;;;5014629;28;20109;-68
2023/06/21 03:00:28;;;;;;;11.57;6.05;;;20.40;99.90;;;;;;5012409;28;20029;-68
2023/06/21 03:03:00;;;;;;;13.18;6.60;;;20.40;99.90;;;;;;5032367;22;20379;-71
2023/06/21 03:05:30;;;;;;;17.20;7.15;;;20.40;99.90;;;;;;5025482;28;20042;-71
2023/06/21 03:07:57;;;;;;;12.02;6.30;;;20.60;99.90;;;;;;5015557;28;20093;-70
2023/06/21 03:10:23;;;;;;;12.90;6.10;;;20.50;99.90;;;;;;5015480;28;20033;-70
2023/06/21 03:12:49;;;;;;;13.45;6.63;;;20.60;99.90;;;;;;5033105;28;20025;-71
2023/06/21 03:15:15;;;;;;;18.42;6.63;;;20.50;99.90;;;;;;5033213;28;20037;-71
2023/06/21 03:17:43;;;;;;;11.23;6.03;;;20.60;99.90;;;;;;5015564;28;20035;-70
2023/06/21 03:20:13;;;;;;;15.57;6.05;;;20.60;99.90;;;;;;5033060;28;20037;-71
2023/06/21 03:22:43;;;;;;;12.35;6.75;;;20.50;99.90;;;;;;5016000;28;20025;-71
2023/06/21 03:25:15;;;;;;;14.00;7.23;;;20.60;99.90;;;;;;5048428;28;20111;-71
2023/06/21 03:27:41;;;;;;;12.77;6.57;;;20.60;99.90;;;;;;5033062;28;20037;-71
2023/06/21 03:30:12;;;;;;;12.23;6.75;;;20.50;99.90;;;;;;5032999;28;20029;-71
2023/06/21 03:32:46;;;;;;;12.82;6.63;;;20.60;99.90;;;;;;4999345;28;20048;-71
2023/06/21 03:35:14;;;;;;;11.93;5.97;;;20.50;99.90;;;;;;5032770;28;20484;-71
2023/06/21 03:37:40;;;;;;;13.43;6.40;;;20.50;99.90;;;;;;5015223;28;20029;-71
2023/06/21 03:40:11;;;;;;;11.48;6.18;;;20.60;99.90;;;;;;5031176;28;20068;-71
2023/06/21 03:42:37;;;;;;;;;;;20.70;99.90;;;;;;5033226;28;20033;-71
2023/06/21 03:45:03;;;;;;;17.48;6.35;;;20.70;99.90;;;;;;5032596;28;19913;-70
2023/06/21 03:47:29;;;;;;;13.73;6.80;;;20.70;99.90;;;;;;5032817;28;20037;-71
2023/06/21 03:49:57;;;;;;;12.45;6.63;;;20.80;99.90;;;;;;5032289;28;20028;-71
2023/06/21 03:52:24;;;;;;;14.00;6.38;;;20.90;99.90;;;;;;5032397;28;20022;-70
2023/06/21 03:54:52;;;;;;;11.73;6.95;;;20.90;99.90;;;;;;5031358;28;20029;-71
2023/06/21 03:57:17;;;;;;;13.15;6.55;;;20.90;99.90;;;;;;5032397;28;20037;-71
2023/06/21 03:59:43;;;;;;;15.13;6.63;;;21.00;99.90;;;;;;5032131;28;20033;-71
2023/06/21 04:02:09;;;;;;;11.60;6.78;;;21.10;99.90;;;;;;5032433;28;20029;-71
2023/06/21 04:04:34;;;;;;;12.90;7.13;;;21.10;99.90;;;;;;5032071;28;20084;-70
2023/06/21 04:07:00;;;;;;;15.98;6.65;;;21.10;99.90;;;;;;5014549;28;20029;-71
2023/06/21 04:09:26;;;;;;;11.82;6.40;;;21.10;99.90;;;;;;5031307;28;20021;-71
2023/06/21 04:11:52;;;;;;;12.00;6.07;;;21.00;99.90;;;;;;5032249;28;20025;-70
2023/06/21 04:14:18;;;;;;;12.25;5.47;;;21.00;99.90;;;;;;5031055;28;20116;-70
2023/06/21 04:16:43;;;;;;;10.02;6.15;;;21.00;99.90;;;;;;5012376;28;20029;-71
2023/06/21 04:19:09;;;;;;;13.77;5.72;;;21.00;99.90;;;;;;5012043;28;20084;-71
2023/06/21 04:21:35;;;;;;;11.63;5.50;;;21.00;99.90;;;;;;5012018;28;20492;-71
2023/06/21 04:24:01;;;;;;;12.38;6.22;;;21.00;99.90;;;;;;5012247;28;20072;-70
2023/06/21 04:26:28;;;;;;;11.55;5.70;;;21.00;99.90;;;;;;5011964;28;20501;-71
2023/06/21 04:28:54;;;;;;;10.30;5.10;;;21.10;99.90;;;;;;5012200;28;20026;-70
2023/06/21 04:31:20;;;;;;;12.02;6.13;;;21.20;99.90;;;;;;5011883;28;20030;-70
2023/06/21 04:33:46;;;;;;;10.45;5.32;;;21.20;99.90;;;;;;5011725;28;20084;-70
2023/06/21 04:36:17;;;;;;;8.63;4.68;;;21.30;99.90;;;;;;5011885;28;20040;-71
2023/06/21 04:38:48;;;;;;;8.50;4.30;;;21.30;99.90;;;;;;5011499;28;20026;-71
2023/06/21 04:41:15;;;;;;;7.00;4.35;;;21.30;99.90;;;;;;4994872;28;20037;-71
2023/06/21 04:43:42;;;;;;;10.73;4.75;;;21.40;99.90;;;;;;4994256;28;20065;-71
2023/06/21 04:46:08;;;;;;;18.67;5.05;;;21.40;99.90;;;;;;4994318;28;20030;-71
2023/06/21 04:48:33;;;;;;;10.68;5.10;;;21.40;99.90;;;;;;4994261;28;20398;-71
2023/06/21 04:50:59;;;;;;;14.10;5.00;;;21.20;99.90;;;;;;4993976;28;20041;-70
2023/06/21 04:53:29;;;;;;;7.88;4.25;;;21.20;99.90;;;;;;4993621;28;20029;-70
2023/06/21 04:55:58;;;;;;;9.82;4.68;;;21.20;99.90;;;;;;4993924;28;20029;-70
2023/06/21 04:58:25;;;;;;;8.18;5.20;;;21.30;99.90;;;;;;5011438;28;20037;-71
2023/06/21 05:00:51;;;;;;;13.73;6.03;;;21.30;99.90;;;;;;5011398;28;20541;-71
2023/06/21 05:03:16;;;;;;;11.65;5.28;;;21.40;99.90;;;;;;5011106;28;20413;-69
2023/06/21 05:05:42;;;;;;;8.43;5.18;;;21.30;99.90;;;;;;5011473;28;20026;-70
2023/06/21 05:08:08;;;;;;;10.57;5.70;;;21.30;99.90;;;;;;5011248;28;20041;-71
2023/06/21 05:10:34;;;;;;;14.50;6.80;;;21.40;99.90;;;;;;4993581;28;20049;-71
2023/06/21 05:13:00;;;;;;;12.07;5.55;;;21.40;99.90;;;;;;4977556;28;20111;-71
2023/06/21 05:15:26;;;;;;;10.00;5.60;;;21.60;99.90;;;;;;5021517;28;20076;-71
2023/06/21 05:17:52;;;;;;;10.27;5.03;;;21.60;99.90;;;;;;5031323;28;20037;-71
2023/06/21 05:20:21;;;;;;;12.98;5.63;;;21.60;99.90;;;;;;5012914;28;20033;-71
2023/06/21 05:22:47;;;;;;;11.55;7.07;;;21.50;99.90;;;;;;5030743;28;20037;-71
2023/06/21 05:25:13;;;;;;;9.82;5.80;;;21.20;99.90;;;;;;5030298;28;20034;-70
2023/06/21 05:27:38;;;;;;;10.02;6.13;;;21.30;99.90;;;;;;5030559;28;20034;-70
2023/06/21 05:30:05;;;;;;;14.15;6.60;;;21.20;99.90;;;;;;5030557;28;20036;-70
2023/06/21 05:32:31;;;;;;;11.38;6.97;;;21.30;99.90;;;;;;5030672;28;20095;-71
2023/06/21 05:34:57;;;;;;;13.00;5.95;;;21.20;99.90;;;;;;5030640;28;20480;-71
2023/06/21 05:37:23;;;;;;;10.25;5.85;;;21.20;99.90;;;;;;5012813;28;20029;-71
2023/06/21 05:39:49;;;;;;;10.88;5.78;;;21.20;99.90;;;;;;5012816;28;20041;-70
2023/06/21 05:42:15;;;;;;;13.77;7.07;;;21.20;99.90;;;;;;5012724;28;20033;-70
2023/06/21 05:44:40;;;;;;;10.27;5.85;;;21.20;99.90;;;;;;5012572;28;20075;-70
2023/06/21 05:47:06;;;;;;;13.98;5.95;;;21.10;99.90;;;;;;5012936;28;20416;-71
2023/06/21 05:49:32;;;;;;;12.10;6.97;;;21.10;99.90;;;;;;5030132;28;20022;-71
2023/06/21 05:51:59;;;;;;;10.73;5.80;;;21.20;99.90;;;;;;5030622;28;20080;-70
2023/06/21 05:54:25;;;;;;;13.95;6.78;;;21.20;99.90;;;;;;5013035;28;20044;-70
2023/06/21 05:56:52;;;;;;;14.20;6.35;;;21.20;99.90;;;;;;5030494;28;20042;-70
2023/06/21 05:59:18;;;;;;;12.70;5.97;;;21.10;99.90;;;;;;5030593;28;20031;-70
2023/06/21 06:01:43;;;;;;;10.35;5.47;;;21.10;99.90;;;;;;5030112;28;20079;-69
2023/06/21 06:04:09;;;;;;;8.30;5.38;;;21.10;99.90;;;;;;5030739;28;20128;-70
2023/06/21 06:06:39;;;;;;;16.25;6.40;;;21.20;99.90;;;;;;5030780;28;20637;-71
2023/06/21 06:09:09;;;;;;;9.25;5.28;;;21.40;99.90;;;;;;5013257;28;20079;-69
2023/06/21 06:11:35;;;;;;;8.70;4.45;;;21.50;99.90;;;;;;5030403;28;20370;-71
2023/06/21 06:14:02;;;;;;;6.40;4.30;;;21.60;99.90;;;;;;5030354;28;20036;-71
2023/06/21 06:16:28;;;;;;;9.20;4.95;;;21.50;99.90;;;;;;5030213;28;20115;-69
2023/06/21 06:18:54;;;;;;;11.68;4.78;;;21.60;99.90;;;;;;5012592;28;20496;-73
2023/06/21 06:21:21;;;;;;;7.75;4.18;;;21.60;99.90;;;;;;4996353;28;20073;-69
2023/06/21 06:23:54;;;;;;;9.27;4.10;;;21.70;99.90;;;;;;5012736;28;20374;-70
2023/06/21 06:26:25;;;;;;;5.70;3.70;;;21.80;99.90;;;;;;5030247;28;20076;-69
2023/06/21 06:28:52;;;;;;;8.07;4.18;;;21.70;99.90;;;;;;5012582;28;20040;-71
2023/06/21 06:31:21;;;;;;;9.35;4.78;;;21.80;99.90;;;;;;4996711;28;20026;-70
2023/06/21 06:33:47;;;;;;;8.60;4.10;;;21.90;99.90;;;;;;5000138;28;20032;-70
2023/06/21 06:36:13;;;;;;;5.85;3.80;;;21.90;99.90;;;;;;5033950;28;20043;-71
2023/06/21 06:38:39;;;;;;;11.40;4.97;;;21.90;99.90;;;;;;5034034;28;20103;-70
2023/06/21 06:41:05;;;;;;;6.80;3.95;;;22.10;99.90;;;;;;5033652;28;20611;-70
2023/06/21 06:43:33;;;;;;;7.40;4.10;;;22.00;99.90;;;;;;5016103;28;20049;-70
2023/06/21 06:45:58;;;;;;;6.47;3.58;;;22.00;99.90;;;;;;5034092;28;20040;-71
2023/06/21 06:48:25;;;;;;;5.05;3.67;;;22.30;99.90;;;;;;5033776;28;20025;-71
2023/06/21 06:50:51;;;;;;;8.02;4.00;;;22.40;99.90;;;;;;5033797;28;20037;-71
2023/06/21 06:53:17;;;;;;;7.10;3.70;;;22.20;99.90;;;;;;5033955;28;20537;-71
2023/06/21 06:55:43;;;;;;;6.60;3.88;;;22.30;99.90;;;;;;5033804;28;20029;-71
2023/06/21 06:58:09;;;;;;;7.13;3.65;;;22.50;99.90;;;;;;5033635;28;20037;-70
2023/06/21 07:00:34;;;;;;;10.00;4.50;;;22.60;99.90;;;;;;5033711;28;20061;-70
2023/06/21 07:03:00;;;;;;;6.93;4.03;;;22.80;99.90;;;;;;5033429;28;20048;-70
2023/06/21 07:05:26;;;;;;;9.38;3.80;;;22.40;99.90;;;;;;5033621;28;20041;-70
2023/06/21 07:07:53;;;;;;;12.30;4.05;;;22.50;99.90;;;;;;4999477;28;20025;-70
2023/06/21 07:10:20;;;;;;;7.25;3.78;;;22.80;99.90;;;;;;5015772;28;20447;-71
2023/06/21 07:12:46;;;;;;;8.60;3.95;;;22.80;99.90;;;;;;5015710;28;20029;-70
2023/06/21 07:15:11;;;;;;;6.65;3.67;;;23.20;99.90;;;;;;4999452;28;20564;-71
2023/06/21 07:17:37;;;;;;;9.27;4.05;;;23.30;99.90;;;;;;5033521;28;20040;-70
2023/06/21 07:20:06;;;;;;;7.85;4.32;;;23.10;99.90;;;;;;5032894;28;20033;-71
2023/06/21 07:22:32;;;;;;;7.97;4.32;;;23.30;99.90;;;;;;5032955;28;20396;-71
2023/06/21 07:24:58;;;;;;;11.77;3.97;;;23.50;99.90;;;;;;5033267;28;20048;-71
2023/06/21 07:27:27;;;;;;;7.95;3.97;;;23.70;99.90;;;;;;5033385;28;20025;-71
2023/06/21 07:29:54;;;;;;;7.43;3.80;;;23.60;99.90;;;;;;5032628;28;20025;-70
2023/06/21 07:32:19;;;;;;;10.85;4.00;;;23.70;99.90;;;;;;5015117;28;20084;-71
2023/06/21 07:34:45;;;;;;;4.60;3.13;;;23.80;99.90;;;;;;5015303;28;20033;-71
2023/06/21 07:37:11;;;;;;;6.15;3.33;;;23.70;99.90;;;;;;5033066;28;20025;-69
2023/06/21 07:39:37;;;;;;;6.72;3.70;;;23.90;99.90;;;;;;5014985;28;20109;-69
2023/06/21 07:42:04;;;;;;;5.03;2.92;;;24.00;99.90;;;;;;5032873;28;20116;-71
2023/06/21 07:44:31;;;;;;;7.57;3.75;;;24.20;99.90;;;;;;5015122;28;20025;-72
2023/06/21 07:46:57;;;;;;;7.03;3.30;;;24.20;99.90;;;;;;5015241;28;20018;-71
2023/06/21 07:49:23;;;;;;;6.72;3.00;;;24.20;99.90;;;;;;5015107;28;20021;-70
2023/06/21 07:51:50;;;;;;;4.18;2.75;;;24.10;99.90;;;;;;5014869;28;20025;-70
2023/06/21 07:54:15;;;;;;;7.43;3.97;;;24.30;99.90;;;;;;5032736;28;20084;-70
2023/06/21 07:56:41;;;;;;;5.15;2.80;;;24.20;99.90;;;;;;5032656;28;20037;-71
2023/06/21 07:59:07;;;;;;;7.90;3.78;;;24.30;99.90;;;;;;5032516;28;20029;-70
2023/06/21 08:01:33;;;;;;;5.32;3.10;;;24.30;99.90;;;;;;5032156;28;20061;-70
2023/06/21 08:04:03;;;;;;;6.18;3.53;;;24.60;99.90;;;;;;5032145;28;20044;-70
2023/06/21 08:06:29;;;;;;;6.05;2.88;;;24.80;99.90;;;;;;5032395;28;20033;-70
2023/06/21 08:08:54;;;;;;;5.97;2.47;;;24.90;99.90;;;;;;5032391;28;20138;-71
2023/06/21 08:11:20;;;;;;;8.27;2.88;;;24.50;99.90;;;;;;5014414;28;20037;-70
2023/06/21 08:13:46;;;;;;;4.97;2.60;;;24.40;99.90;;;;;;5032189;28;20025;-71
2023/06/21 08:16:12;;;;;;;5.18;2.80;;;24.50;99.90;;;;;;5032235;28;20086;-71
2023/06/21 08:18:37;;;;;;;8.27;3.00;;;24.80;99.90;;;;;;5032412;28;20102;-70
2023/06/21 08:21:05;;;;;;;4.80;2.83;;;25.20;99.90;;;;;;5031841;28;20041;-70
2023/06/21 08:23:31;;;;;;;5.85;3.05;;;25.40;99.90;;;;;;5032408;28;20094;-71
2023/06/21 08:25:57;;;;;;;9.40;4.00;;;25.50;99.90;;;;;;5032204;28;20381;-70
2023/06/21 08:28:23;;;;;;;5.03;2.85;;;25.50;99.90;;;;;;5014522;28;20029;-70
2023/06/21 08:30:48;;;;;;;6.70;3.22;;;25.70;99.90;;;;;;5013978;28;20041;-71
2023/06/21 08:33:14;;;;;;;5.55;2.92;;;25.80;99.90;;;;;;5014261;28;20025;-70
2023/06/21 08:35:40;;;;;;;6.22;2.65;;;25.90;99.90;;;;;;5031985;28;20108;-70
2023/06/21 08:38:07;;;;;;;5.22;2.85;;;25.60;99.90;;;;;;5031981;28;20047;-70
2023/06/21 08:40:36;;;;;;;9.50;4.03;;;25.60;99.90;;;;;;5013934;28;20033;-71
2023/06/21 08:43:01;;;;;;;9.10;3.15;;;25.70;99.90;;;;;;5031976;28;20029;-71
2023/06/21 08:45:27;;;;;;;5.38;2.75;;;25.70;99.90;;;;;;5014026;28;20087;-69
2023/06/21 08:47:53;;;;;;;6.07;3.20;;;25.70;99.90;;;;;;5031687;28;20648;-70
2023/06/21 08:50:20;;;;;;;3.45;2.13;;;25.50;99.90;;;;;;5031558;28;20112;-70
2023/06/21 08:52:50;;;;;;;6.43;2.65;;;25.60;99.90;;;;;;5013711;28;20030;-70
2023/06/21 08:55:19;;;;;;;4.72;2.40;;;25.40;99.90;;;;;;4997371;28;20113;-70
2023/06/21 08:58:00;;;;;;;5.20;2.38;;;25.30;99.90;;;;;;4997918;28;20449;-69
2023/06/21 09:00:33;;;;;;;5.03;2.90;;;25.20;99.90;;;;;;5031410;28;20037;-70
2023/06/21 09:03:15;;;;;;;5.40;2.75;;;25.30;99.90;;;;;;5014212;28;20125;-70
2023/06/21 09:05:59;;;;;;;3.95;2.45;;;25.40;99.90;;;;;;5013693;28;20022;-70
2023/06/21 09:08:24;;;;;;;7.05;2.42;;;25.30;99.90;;;;;;5014405;28;20029;-70
2023/06/21 09:10:52;;;;;;;4.60;2.78;;;25.50;99.90;;;;;;5013563;28;20034;-71
2023/06/21 09:13:19;;;;;;;4.93;2.58;;;25.60;99.90;;;;;;5031234;28;20029;-70
2023/06/21 09:15:47;;;;;;;5.15;2.67;;;25.60;99.90;;;;;;5031156;28;20033;-70
2023/06/21 09:18:14;;;;;;;8.63;2.65;;;25.70;99.90;;;;;;5013680;28;20033;-70
2023/06/21 09:20:41;;;;;;;5.05;2.92;;;25.80;99.90;;;;;;5031030;28;20029;-70
2023/06/21 09:23:09;;;;;;;5.88;2.30;;;25.80;99.90;;;;;;5013533;28;20032;-70
2023/06/21 09:25:34;;;;;;;3.53;2.35;;;25.90;99.90;;;;;;5013689;28;20491;-70
2023/06/21 09:28:00;;;;;;;4.47;2.38;;;26.10;99.90;;;;;;5013723;28;20109;-70
2023/06/21 09:30:27;;;;;;;5.97;2.63;;;26.00;99.90;;;;;;5013272;28;20466;-70
2023/06/21 09:32:53;;;;;;;4.15;2.70;;;26.30;99.90;;;;;;5030836;28;20083;-70
2023/06/21 09:35:19;;;;;;;4.95;2.83;;;26.20;99.90;;;;;;5013419;28;20029;-70
2023/06/21 09:37:45;;;;;;;4.95;2.78;;;25.90;99.90;;;;;;5012997;28;20022;-70
2023/06/21 09:40:12;;;;;;;4.65;2.58;;;25.70;99.90;;;;;;5012973;28;20049;-70
2023/06/21 09:42:45;;;;;;;6.85;3.60;;;25.90;99.90;;;;;;4996855;28;20048;-70
2023/06/21 09:45:19;;;;;;;4.57;2.58;;;25.70;99.90;;;;;;5013617;28;20061;-70
2023/06/21 09:47:45;;;;;;;4.53;2.85;;;25.80;99.90;;;;;;5013127;28;20032;-71
2023/06/21 09:50:11;;;;;;;3.95;2.63;;;25.90;99.90;;;;;;5013090;28;20033;-71
2023/06/21 09:52:44;;;;;;;5.75;2.97;;;25.80;99.90;;;;;;5013106;28;20026;-71
2023/06/21 09:55:16;;;;;;;5.70;2.53;;;25.60;99.90;;;;;;5013461;28;20036;-70
2023/06/21 09:57:43;;;;;;;5.47;2.78;;;25.60;99.90;;;;;;5030849;28;20034;-70
2023/06/21 10:00:10;;;;;;;10.35;2.97;;;25.30;99.90;;;;;;5013084;28;20029;-70
2023/06/21 10:02:40;;;;;;;6.28;3.25;;;25.20;99.90;;;;;;5030614;28;20029;-70
2023/06/21 10:05:17;;;;;;;8.45;2.65;;;25.50;99.90;;;;;;5030566;28;20030;-70
2023/06/21 10:07:44;;;;;;;7.82;2.92;;;25.30;99.90;;;;;;5033388;28;20670;-70
2023/06/21 10:10:11;;;;;;;5.88;2.70;;;25.30;99.90;;;;;;5016801;28;20044;-70
2023/06/21 10:12:37;;;;;;;6.57;3.38;;;25.20;99.90;;;;;;5034334;28;20025;-70
2023/06/21 10:15:04;;;;;;;5.78;2.67;;;25.30;99.90;;;;;;5034632;28;20757;-70
2023/06/21 10:17:32;;;;;;;15.18;3.00;;;25.50;99.90;;;;;;5016861;28;20124;-70
2023/06/21 10:19:59;;;;;;;6.50;2.92;;;25.70;99.90;;;;;;5016781;28;20062;-70
2023/06/21 10:22:25;;;;;;;6.22;2.90;;;25.70;99.90;;;;;;5016690;28;20179;-69
2023/06/21 10:24:52;;;;;;;4.88;2.35;;;25.60;99.90;;;;;;5034431;28;20025;-70
2023/06/21 10:27:20;;;;;;;6.45;2.85;;;25.50;99.90;;;;;;5016380;28;20021;-69
2023/06/21 10:29:56;;;;;;;4.97;2.78;;;25.80;99.90;;;;;;5015971;28;20028;-70
2023/06/21 10:32:24;;;;;;;7.07;3.40;;;25.70;99.90;;;;;;5034195;28;20029;-71
2023/06/21 10:35:19;;;;;;;4.45;2.53;;;25.70;99.90;;;;;;5034587;28;20358;-71
2023/06/21 10:38:11;;;;;;;4.95;2.75;;;25.80;99.90;;;;;;5016623;28;20029;-71
2023/06/21 10:40:39;;;;;;;5.32;3.08;;;25.80;99.90;;;;;;5033854;28;20025;-71
2023/06/21 10:43:06;;;;;;;4.35;2.67;;;25.70;99.90;;;;;;5016737;28;20022;-70
2023/06/21 10:45:33;;;;;;;4.95;2.88;;;26.00;99.90;;;;;;4999931;28;20033;-70
2023/06/21 10:48:00;;;;;;;5.68;2.78;;;25.70;99.90;;;;;;5000020;28;20017;-70
2023/06/21 10:50:26;;;;;;;4.00;2.70;;;25.80;99.90;;;;;;5033656;28;20036;-71
2023/06/21 10:52:58;;;;;;;5.18;2.50;;;26.00;99.90;;;;;;5016123;28;20034;-71
2023/06/21 10:55:24;;;;;;;5.38;2.83;;;26.30;99.90;;;;;;5016196;28;20493;-71
2023/06/21 10:57:54;;;;;;;4.50;2.33;;;25.70;99.90;;;;;;5016411;28;20128;-71
2023/06/21 11:00:22;;;;;;;;;;;26.00;99.90;;;;;;5000047;28;20071;-71
2023/06/21 11:02:49;;;;;;;4.68;2.67;;;26.00;99.90;;;;;;5016047;28;19919;-71
2023/06/21 11:05:22;;;;;;;6.93;2.72;;;26.50;99.90;;;;;;4999768;28;20033;-71
2023/06/21 11:08:00;;;;;;;7.47;2.95;;;26.70;99.90;;;;;;5033828;28;20033;-71
2023/06/21 11:10:46;;;;;;;9.00;3.13;;;27.10;99.90;;;;;;5016781;28;20033;-71
2023/06/21 11:13:14;;;;;;;7.05;2.75;;;27.10;99.90;;;;;;5016508;28;20443;-71
2023/06/21 11:15:42;;;;;;;5.38;2.83;;;26.80;99.90;;;;;;5033427;28;20039;-71
2023/06/21 11:18:19;;;;;;;4.43;2.60;;;26.90;99.90;;;;;;5015510;28;20086;-71
2023/06/21 11:20:51;;;;;;;4.18;2.50;;;27.00;99.90;;;;;;5015766;28;20546;-71
2023/06/21 11:23:19;;;;;;;4.65;2.42;;;27.10;99.90;;;;;;5033376;28;20159;-71
2023/06/21 11:25:58;;;;;;;4.30;2.78;;;27.20;99.90;;;;;;5033165;28;20052;-71
2023/06/21 11:28:26;;;;;;;7.53;3.17;;;27.10;99.90;;;;;;5033245;28;20400;-70
2023/06/21 11:31:12;;;;;;;6.50;3.15;;;27.00;99.90;;;;;;5032954;28;20075;-70
2023/06/21 11:33:54;;;;;;;6.25;3.03;;;26.70;99.90;;;;;;5015308;28;20083;-70
2023/06/21 11:36:31;;;;;;;7.05;3.25;;;27.30;99.90;;;;;;5016159;28;20029;-70
2023/06/21 11:39:06;;;;;;;7.68;2.80;;;27.70;99.90;;;;;;5016097;28;20061;-70
2023/06/21 11:41:57;;;;;;;5.55;2.97;;;27.70;99.90;;;;;;5032504;28;20553;-70
2023/06/21 11:44:29;;;;;;;5.63;2.95;;;27.50;99.90;;;;;;5015172;28;20037;-70
2023/06/21 11:47:15;;;;;;;8.00;3.67;;;27.80;99.90;;;;;;5032928;28;20477;-70
2023/06/21 11:49:57;;;;;;;5.70;2.70;;;27.10;99.90;;;;;;5032512;28;20030;-71
2023/06/21 11:52:31;;;;;;;4.97;2.60;;;27.70;99.90;;;;;;5015748;28;20060;-71
2023/06/21 11:55:02;;;;;;;6.10;3.00;;;27.50;99.90;;;;;;5015388;28;20065;-70
2023/06/21 11:57:28;;;;;;;5.28;3.40;;;27.60;99.90;;;;;;5032681;28;20026;-71
2023/06/21 11:59:55;;;;;;;5.50;2.55;;;28.10;99.90;;;;;;5032414;28;20108;-70
2023/06/21 12:02:21;;;;;;;8.50;3.10;;;27.20;99.90;;;;;;5014752;28;20037;-71
2023/06/21 12:04:49;;;;;;;6.10;2.70;;;27.60;99.90;;;;;;5032291;28;20117;-70
2023/06/21 12:07:16;;;;;;;5.85;2.88;;;27.70;99.90;;;;;;4998601;28;20429;-70
2023/06/21 12:09:49;;;;;;;6.97;3.15;;;28.30;99.90;;;;;;5032186;28;20076;-70
2023/06/21 12:12:16;;;;;;;11.52;2.92;;;28.40;99.90;;;;;;5014761;28;20057;-70
2023/06/21 12:14:42;;;;;;;5.38;2.90;;;28.40;99.90;;;;;;5032112;28;20049;-71
2023/06/21 12:17:14;;;;;;;6.15;2.85;;;28.50;99.90;;;;;;5014884;28;20021;-70
2023/06/21 12:19:40;;;;;;;5.68;2.90;;;28.70;99.90;;;;;;5015010;28;20055;-70
2023/06/21 12:22:05;;;;;;;4.50;2.30;;;29.00;99.90;;;;;;5014485;28;20026;-70
2023/06/21 12:24:32;;;;;;;5.93;2.70;;;29.50;99.90;;;;;;5031712;28;20106;-71
2023/06/21 12:27:00;;;;;;;5.15;2.65;;;29.40;99.90;;;;;;5032030;28;20515;-70
2023/06/21 12:29:27;;;;;;;4.35;2.40;;;29.50;99.90;;;;;;5013557;28;20065;-71
2023/06/21 12:31:56;;;;;;;6.13;3.53;;;29.80;98.50;;;;;;5014416;28;20044;-71
2023/06/21 12:34:25;;;;;;;6.35;2.50;;;29.70;99.10;;;;;;5031902;28;20041;-71
2023/06/21 12:36:52;;;;;;;5.38;2.78;;;29.70;99.40;;;;;;5031793;28;20026;-70
2023/06/21 12:39:19;;;;;;;7.50;3.03;;;28.70;99.90;;;;;;5014020;28;20033;-70
2023/06/21 12:41:44;;;;;;;7.28;3.13;;;28.60;99.90;;;;;;4997873;28;20033;-70
2023/06/21 12:44:26;;;;;;;5.20;2.75;;;28.90;99.90;;;;;;5031652;28;20034;-70
2023/06/21 12:46:52;;;;;;;4.68;2.63;;;29.40;99.90;;;;;;5031824;28;20105;-70
2023/06/21 12:49:18;;;;;;;6.85;2.88;;;29.00;99.40;;;;;;5013903;28;20436;-70